createdAt,value
2023-04-15T00:01:10.197Z,69.06
2023-04-15T00:03:37.227Z,69.11
2023-04-15T00:06:04.474Z,69.18
2023-04-15T00:08:31.337Z,69.42
2023-04-15T00:11:03.240Z,69.69
2023-04-15T00:13:36.052Z,69.15
2023-04-15T00:16:03.094Z,69.44
2023-04-15T00:18:30.540Z,69.32
2023-04-15T00:20:57.445Z,68.73
2023-04-15T00:23:24.442Z,69.18
2023-04-15T00:25:52.102Z,69.31
2023-04-15T00:28:19.193Z,69.76
2023-04-15T00:30:46.480Z,71.03
2023-04-15T00:33:14.965Z,73.27
2023-04-15T00:35:42.133Z,74.61
2023-04-15T00:38:09.828Z,75.25
2023-04-15T00:40:36.783Z,76.81
2023-04-15T00:43:04.374Z,77.73
2023-04-15T00:45:32.151Z,78.08
2023-04-15T00:47:59.474Z,78.69
2023-04-15T00:50:27.212Z,78.95
2023-04-15T00:52:56.172Z,79.09
2023-04-15T00:55:23.131Z,78.92
2023-04-15T00:57:50.947Z,79.35
2023-04-15T01:00:18.259Z,79.69
2023-04-15T01:02:46.174Z,80.38
2023-04-15T01:05:14.779Z,80.49
2023-04-15T01:07:41.628Z,80.24
2023-04-15T01:10:09.342Z,80.07
2023-04-15T01:12:39.621Z,79.77
2023-04-15T01:15:08.146Z,79.95
2023-04-15T01:17:36.497Z,79.65
2023-04-15T01:20:05.419Z,78.87
2023-04-15T01:22:34.572Z,77.74
2023-04-15T01:25:17.775Z,77.01
2023-04-15T01:27:45.673Z,75.69
2023-04-15T01:30:12.700Z,76.30
2023-04-15T01:32:39.994Z,74.88
2023-04-15T01:35:09.056Z,74.06
2023-04-15T01:37:37.015Z,73.36
2023-04-15T01:40:04.241Z,73.81
2023-04-15T01:42:51.298Z,75.22
2023-04-15T01:45:18.373Z,75.10
2023-04-15T01:47:45.533Z,74.13
2023-04-15T01:50:14.040Z,74.40
2023-04-15T01:52:41.193Z,75.05
2023-04-15T01:55:09.763Z,75.42
2023-04-15T01:57:56.296Z,76.54
2023-04-15T02:00:23.684Z,76.51
2023-04-15T02:02:51.379Z,77.12
2023-04-15T02:05:18.312Z,78.33
2023-04-15T02:07:46.391Z,79.23
2023-04-15T02:10:31.576Z,80.47
2023-04-15T02:13:00.283Z,81.13
2023-04-15T02:15:27.394Z,80.39
2023-04-15T02:17:55.460Z,79.11
2023-04-15T02:20:22.710Z,79.12
2023-04-15T02:22:50.443Z,78.63
2023-04-15T02:25:17.509Z,77.63
2023-04-15T02:27:46.219Z,76.68
2023-04-15T02:30:14.133Z,77.09
2023-04-15T02:32:43.858Z,77.61
2023-04-15T02:35:12.127Z,78.88
2023-04-15T02:37:43.885Z,77.86
2023-04-15T02:40:14.183Z,78.97
2023-04-15T02:42:43.016Z,79.50
2023-04-15T02:45:15.157Z,79.60
2023-04-15T02:47:42.142Z,80.53
2023-04-15T02:50:12.784Z,81.00
2023-04-15T02:52:43.477Z,80.60
2023-04-15T02:55:12.877Z,80.38
2023-04-15T02:57:41.784Z,79.12
2023-04-15T03:00:11.824Z,78.40
2023-04-15T03:02:42.443Z,77.33
2023-04-15T03:05:14.710Z,77.97
2023-04-15T03:07:42.556Z,77.33
2023-04-15T03:10:11.342Z,76.25
2023-04-15T03:12:39.615Z,75.74
2023-04-15T03:15:07.371Z,74.62
2023-04-15T03:17:36.943Z,74.22
2023-04-15T03:20:07.431Z,74.05
2023-04-15T03:22:34.542Z,73.30
2023-04-15T03:25:02.328Z,74.66
2023-04-15T03:27:30.012Z,76.90
2023-04-15T03:29:57.820Z,78.20
2023-04-15T03:32:25.572Z,79.50
2023-04-15T03:34:52.540Z,79.54
2023-04-15T03:37:20.150Z,80.83
2023-04-15T03:39:48.921Z,81.86
2023-04-15T03:42:16.733Z,82.51
2023-04-15T03:44:43.656Z,81.58
2023-04-15T03:47:10.514Z,81.41
2023-04-15T03:49:38.322Z,80.63
2023-04-15T03:52:06.285Z,79.62
2023-04-15T03:54:33.185Z,78.96
2023-04-15T03:57:00.065Z,78.11
2023-04-15T03:59:27.126Z,77.31
2023-04-15T04:01:56.142Z,76.59
2023-04-15T04:04:23.090Z,75.57
2023-04-15T04:06:52.710Z,78.11
2023-04-15T04:09:21.801Z,77.97
2023-04-15T04:11:49.499Z,78.20
2023-04-15T04:14:17.267Z,77.38
2023-04-15T04:16:45.433Z,76.34
2023-04-15T04:19:12.347Z,75.03
2023-04-15T04:21:40.122Z,76.25
2023-04-15T04:24:08.869Z,77.49
2023-04-15T04:26:35.908Z,76.97
2023-04-15T04:29:05.425Z,76.09
2023-04-15T04:31:33.275Z,75.10
2023-04-15T04:34:01.135Z,74.14
2023-04-15T04:36:28.951Z,73.47
2023-04-15T04:38:57.395Z,73.14
2023-04-15T04:41:25.191Z,72.31
2023-04-15T04:43:52.895Z,72.33
2023-04-15T04:46:20.862Z,72.23
2023-04-15T04:48:48.950Z,72.90
2023-04-15T04:51:16.293Z,72.84
2023-04-15T04:53:46.263Z,73.85
2023-04-15T04:56:14.122Z,75.25
2023-04-15T04:58:42.500Z,76.11
2023-04-15T05:01:10.357Z,75.64
2023-04-15T05:03:38.339Z,76.37
2023-04-15T05:06:07.505Z,76.14
2023-04-15T05:08:35.482Z,75.81
2023-04-15T05:11:03.887Z,76.35
2023-04-15T05:13:30.799Z,76.35
2023-04-15T05:15:58.058Z,76.98
2023-04-15T05:18:25.943Z,77.43
2023-04-15T05:20:54.053Z,76.52
2023-04-15T05:23:21.910Z,76.77
2023-04-15T05:25:48.857Z,76.57
2023-04-15T05:28:18.298Z,77.03
2023-04-15T05:30:46.343Z,77.45
2023-04-15T05:33:14.511Z,78.77
2023-04-15T05:35:42.372Z,78.14
2023-04-15T05:38:11.932Z,78.17
2023-04-15T05:40:39.854Z,77.76
2023-04-15T05:43:07.674Z,77.84
2023-04-15T05:45:35.323Z,77.34
2023-04-15T05:48:02.385Z,76.95
2023-04-15T05:50:29.787Z,77.79
2023-04-15T05:52:57.808Z,77.75
2023-04-15T05:55:26.121Z,77.48
2023-04-15T05:57:53.125Z,77.26
2023-04-15T06:00:22.696Z,76.00
2023-04-15T06:02:50.803Z,73.79
2023-04-15T06:05:19.316Z,73.59
2023-04-15T06:07:48.607Z,72.63
2023-04-15T06:10:15.756Z,71.03
2023-04-15T06:12:43.803Z,70.17
2023-04-15T06:15:11.368Z,68.91
2023-04-15T06:17:38.537Z,69.38
2023-04-15T06:20:08.648Z,71.23
2023-04-15T06:22:38.679Z,71.73
2023-04-15T06:25:08.223Z,70.66
2023-04-15T06:27:36.040Z,71.53
2023-04-15T06:30:03.191Z,71.22
2023-04-15T06:32:31.139Z,70.98
2023-04-15T06:34:58.339Z,71.78
2023-04-15T06:37:26.127Z,72.38
2023-04-15T06:39:53.980Z,71.38
2023-04-15T06:42:21.711Z,74.11
2023-04-15T06:44:49.432Z,74.35
2023-04-15T06:47:17.358Z,74.47
2023-04-15T06:49:45.776Z,75.06
2023-04-15T06:52:13.687Z,75.09
2023-04-15T06:54:40.949Z,75.63
2023-04-15T06:57:09.424Z,74.64
2023-04-15T06:59:37.273Z,73.21
2023-04-15T07:02:05.167Z,72.99
2023-04-15T07:04:32.933Z,72.11
2023-04-15T07:07:00.828Z,72.59
2023-04-15T07:09:30.487Z,72.57
2023-04-15T07:11:57.431Z,73.85
2023-04-15T07:14:25.213Z,74.33
2023-04-15T07:16:53.351Z,73.98
2023-04-15T07:19:21.186Z,74.40
2023-04-15T07:21:50.110Z,75.73
2023-04-15T07:24:20.835Z,76.22
2023-04-15T07:26:48.866Z,75.52
2023-04-15T07:29:16.784Z,75.58
2023-04-15T07:31:44.651Z,75.60
2023-04-15T07:34:14.155Z,76.28
2023-04-15T07:36:41.315Z,75.37
2023-04-15T07:39:08.405Z,73.75
2023-04-15T07:41:36.186Z,73.33
2023-04-15T07:44:03.352Z,73.99
2023-04-15T07:46:31.324Z,75.00
2023-04-15T07:49:00.925Z,74.29
2023-04-15T07:51:29.775Z,73.22
2023-04-15T07:53:57.458Z,72.90
2023-04-15T07:56:24.391Z,71.93
2023-04-15T07:58:51.666Z,69.84
2023-04-15T08:01:19.470Z,69.45
2023-04-15T08:03:47.367Z,68.27
2023-04-15T08:06:16.271Z,67.85
2023-04-15T08:08:44.063Z,68.23
2023-04-15T08:11:10.985Z,66.37
2023-04-15T08:13:38.901Z,65.61
2023-04-15T08:16:33.402Z,65.31
2023-04-15T08:19:01.534Z,63.25
2023-04-15T08:21:31.320Z,63.36
2023-04-15T08:23:59.109Z,63.53
2023-04-15T08:26:26.485Z,64.04
2023-04-15T08:28:53.493Z,61.33
2023-04-15T08:31:20.263Z,61.46
2023-04-15T08:33:47.473Z,60.52
2023-04-15T08:36:15.216Z,60.26
2023-04-15T08:38:43.000Z,59.37
2023-04-15T08:41:21.291Z,59.09
2023-04-15T08:43:59.255Z,59.86
2023-04-15T08:46:27.096Z,59.04
2023-04-15T08:48:58.068Z,59.14
2023-04-15T08:51:25.620Z,58.89
2023-04-15T08:53:53.757Z,58.99
2023-04-15T08:56:25.670Z,57.35
2023-04-15T08:58:53.633Z,58.46
2023-04-15T09:01:21.842Z,59.79
2023-04-15T09:03:50.761Z,59.06
2023-04-15T09:06:18.577Z,59.35
2023-04-15T09:08:45.898Z,58.66
2023-04-15T09:11:13.339Z,57.21
2023-04-15T09:13:40.980Z,56.81
2023-04-15T09:16:09.417Z,57.71
2023-04-15T09:18:39.381Z,55.85
2023-04-15T09:21:15.249Z,57.19
2023-04-15T09:23:56.360Z,57.63
2023-04-15T09:26:34.860Z,58.56
2023-04-15T09:29:13.567Z,57.95
2023-04-15T09:31:41.768Z,57.15
2023-04-15T09:34:08.908Z,55.01
2023-04-15T09:36:53.395Z,54.87
2023-04-15T09:39:21.646Z,55.35
2023-04-15T09:42:06.935Z,56.12
2023-04-15T09:44:34.657Z,55.74
2023-04-15T09:47:02.421Z,56.47
2023-04-15T09:49:30.216Z,57.11
2023-04-15T09:52:05.740Z,56.68
2023-04-15T09:54:38.892Z,56.85
2023-04-15T09:57:13.221Z,57.20
2023-04-15T09:59:41.082Z,56.16
2023-04-15T10:02:08.479Z,55.85
2023-04-15T10:04:40.046Z,55.51
2023-04-15T10:07:10.164Z,54.51
2023-04-15T10:09:39.699Z,54.29
2023-04-15T10:12:07.538Z,54.33
2023-04-15T10:14:38.799Z,53.43
2023-04-15T10:17:11.709Z,53.90
2023-04-15T10:19:39.497Z,53.31
2023-04-15T10:22:07.030Z,53.53
2023-04-15T10:24:34.392Z,52.41
2023-04-15T10:27:04.562Z,51.78
2023-04-15T10:29:32.264Z,51.05
2023-04-15T10:32:00.729Z,50.49
2023-04-15T10:34:30.311Z,50.80
2023-04-15T10:37:03.738Z,51.16
2023-04-15T10:39:34.672Z,51.22
2023-04-15T10:42:21.185Z,50.57
2023-04-15T10:44:53.728Z,51.41
2023-04-15T10:47:22.204Z,51.95
2023-04-15T10:50:01.162Z,51.27
2023-04-15T10:52:29.511Z,49.90
2023-04-15T10:55:04.813Z,49.24
2023-04-15T10:57:39.441Z,49.03
2023-04-15T11:00:15.009Z,49.57
2023-04-15T11:02:42.898Z,49.77
2023-04-15T11:05:18.187Z,48.65
2023-04-15T11:07:52.088Z,50.03
2023-04-15T11:10:25.945Z,50.65
2023-04-15T11:12:57.537Z,50.98
2023-04-15T11:15:34.506Z,51.98
2023-04-15T11:18:14.121Z,51.11
2023-04-15T11:20:43.333Z,51.35
2023-04-15T11:23:14.930Z,51.35
2023-04-15T11:25:43.853Z,52.19
2023-04-15T11:28:13.404Z,50.92
2023-04-15T11:30:42.253Z,50.43
2023-04-15T11:33:14.336Z,51.28
2023-04-15T11:35:42.735Z,51.20
2023-04-15T11:38:15.612Z,52.23
2023-04-15T11:40:46.794Z,52.18
2023-04-15T11:43:21.986Z,50.83
2023-04-15T11:46:03.926Z,50.97
2023-04-15T11:48:34.002Z,51.32
2023-04-15T11:51:07.051Z,52.13
2023-04-15T11:53:42.296Z,50.83
2023-04-15T11:56:11.929Z,50.87
2023-04-15T11:58:39.705Z,50.12
2023-04-15T12:01:07.986Z,50.25
2023-04-15T12:03:41.374Z,50.88
2023-04-15T12:06:19.641Z,51.49
2023-04-15T12:09:03.851Z,52.01
2023-04-15T12:11:45.201Z,52.35
2023-04-15T12:14:17.017Z,53.06
2023-04-15T12:16:52.551Z,52.69
2023-04-15T12:19:29.922Z,50.93
2023-04-15T12:22:11.033Z,50.42
2023-04-15T12:24:39.663Z,49.56
2023-04-15T12:27:09.594Z,49.56
2023-04-15T12:29:39.217Z,50.49
2023-04-15T12:32:11.332Z,51.37
2023-04-15T12:34:40.680Z,50.89
2023-04-15T12:37:10.555Z,49.77
2023-04-15T12:39:43.474Z,50.36
2023-04-15T12:42:12.054Z,50.91
2023-04-15T12:44:40.151Z,50.97
2023-04-15T12:47:08.021Z,49.69
2023-04-15T12:49:35.730Z,51.28
2023-04-15T12:52:03.750Z,51.20
2023-04-15T12:54:32.347Z,52.35
2023-04-15T12:57:01.265Z,51.57
2023-04-15T12:59:29.230Z,51.21
2023-04-15T13:01:57.567Z,51.26
2023-04-15T13:04:25.714Z,50.75
2023-04-15T13:06:53.510Z,50.61
2023-04-15T13:09:20.756Z,50.43
2023-04-15T13:11:49.719Z,50.44
2023-04-15T13:14:17.446Z,50.92
2023-04-15T13:16:45.197Z,51.13
2023-04-15T13:19:12.913Z,50.81
2023-04-15T13:21:40.002Z,51.67
2023-04-15T13:24:07.477Z,53.09
2023-04-15T13:26:34.664Z,52.30
2023-04-15T13:29:02.475Z,52.38
2023-04-15T13:31:30.573Z,52.31
2023-04-15T13:33:58.474Z,52.20
2023-04-15T13:36:27.522Z,51.92
2023-04-15T13:38:58.534Z,52.11
2023-04-15T13:41:25.547Z,53.32
2023-04-15T13:43:52.319Z,53.31
2023-04-15T13:46:19.359Z,52.63
2023-04-15T13:48:46.416Z,53.27
2023-04-15T13:51:14.159Z,53.28
2023-04-15T13:53:42.176Z,52.21
2023-04-15T13:56:09.391Z,51.75
2023-04-15T13:58:37.074Z,53.52
2023-04-15T14:01:05.716Z,53.58
2023-04-15T14:03:36.240Z,52.35
2023-04-15T14:06:05.920Z,52.65
2023-04-15T14:08:34.556Z,53.02
2023-04-15T14:11:02.420Z,51.61
2023-04-15T14:13:29.792Z,50.50
2023-04-15T14:15:57.550Z,48.68
2023-04-15T14:18:25.835Z,49.48
2023-04-15T14:20:54.089Z,49.03
2023-04-15T14:23:21.178Z,48.33
2023-04-15T14:25:51.872Z,47.38
2023-04-15T14:28:19.571Z,46.84
2023-04-15T14:30:46.718Z,48.22
2023-04-15T14:33:14.394Z,48.09
2023-04-15T14:35:42.473Z,47.19
2023-04-15T14:38:11.639Z,47.32
2023-04-15T14:40:39.444Z,47.06
2023-04-15T14:43:07.108Z,48.38
2023-04-15T14:45:35.354Z,49.35
2023-04-15T14:48:03.486Z,48.95
2023-04-15T14:50:31.164Z,48.57
2023-04-15T14:52:59.390Z,48.95
2023-04-15T14:55:26.227Z,48.16
2023-04-15T14:57:54.045Z,48.10
2023-04-15T15:00:25.706Z,48.93
2023-04-15T15:02:52.749Z,49.29
2023-04-15T15:05:19.820Z,49.63
2023-04-15T15:07:47.152Z,49.19
2023-04-15T15:10:14.792Z,47.73
2023-04-15T15:12:41.675Z,48.30
2023-04-15T15:15:25.217Z,49.09
2023-04-15T15:17:55.710Z,49.69
2023-04-15T15:20:24.174Z,48.29
2023-04-15T15:22:51.055Z,47.71
2023-04-15T15:25:19.018Z,47.39
2023-04-15T15:27:46.197Z,47.15
2023-04-15T15:30:13.481Z,46.79
2023-04-15T15:32:41.668Z,47.60
2023-04-15T15:35:11.135Z,48.13
2023-04-15T15:37:38.526Z,48.90
2023-04-15T15:40:05.916Z,49.17
2023-04-15T15:42:34.227Z,49.44
2023-04-15T15:45:01.172Z,48.79
2023-04-15T15:47:30.362Z,49.31
2023-04-15T15:50:00.579Z,50.14
2023-04-15T15:52:28.297Z,50.17
2023-04-15T15:54:56.173Z,49.05
2023-04-15T15:57:23.404Z,48.70
2023-04-15T16:00:00.770Z,47.95
2023-04-15T16:03:04.272Z,50.29
2023-04-15T16:05:24.396Z,50.77
2023-04-15T16:07:51.235Z,50.50
2023-04-15T16:10:18.124Z,50.00
2023-04-15T16:15:32.244Z,48.41
2023-04-15T16:17:59.590Z,47.31
2023-04-15T16:20:28.759Z,46.77
2023-04-15T16:22:58.315Z,46.85
2023-04-15T16:25:27.238Z,46.11
2023-04-15T16:28:01.470Z,45.81
2023-04-15T16:30:38.957Z,45.49
2023-04-15T16:33:07.410Z,45.27
2023-04-15T16:35:34.970Z,45.58
2023-04-15T16:38:01.908Z,45.53
2023-04-15T16:40:30.858Z,45.60
2023-04-15T16:42:57.651Z,45.79
2023-04-15T16:45:26.438Z,45.77
2023-04-15T16:47:56.871Z,46.22
2023-04-15T16:50:24.158Z,45.91
2023-04-15T16:52:51.335Z,46.30
2023-04-15T16:55:18.404Z,46.11
2023-04-15T16:58:03.171Z,45.75
2023-04-15T17:00:36.277Z,46.10
2023-04-15T17:03:03.826Z,46.35
2023-04-15T17:05:31.328Z,45.86
2023-04-15T17:07:58.386Z,46.40
2023-04-15T17:10:27.987Z,46.67
2023-04-15T17:12:57.811Z,47.04
2023-04-15T17:15:25.197Z,47.24
2023-04-15T17:17:54.461Z,47.40
2023-04-15T17:20:21.571Z,47.75
2023-04-15T17:22:49.482Z,48.00
2023-04-15T17:25:16.651Z,47.73
2023-04-15T17:27:45.318Z,49.25
2023-04-15T17:30:13.130Z,49.68
2023-04-15T17:32:45.065Z,49.59
2023-04-15T17:35:13.379Z,50.17
2023-04-15T17:37:41.213Z,49.54
2023-04-15T17:40:09.578Z,49.77
2023-04-15T17:42:36.829Z,49.86
2023-04-15T17:45:06.354Z,49.45
2023-04-15T17:47:35.316Z,49.38
2023-04-15T17:50:03.594Z,49.41
2023-04-15T17:52:30.632Z,49.55
2023-04-15T17:54:58.377Z,50.08
2023-04-15T17:57:26.496Z,50.52
2023-04-15T17:59:55.150Z,52.55
2023-04-15T18:02:23.033Z,52.61
2023-04-15T18:04:51.992Z,52.85
2023-04-15T18:07:22.394Z,52.23
2023-04-15T18:09:50.843Z,52.57
2023-04-15T18:12:18.716Z,52.70
2023-04-15T18:14:46.693Z,52.99
2023-04-15T18:17:15.405Z,53.15
2023-04-15T18:19:46.271Z,52.76
2023-04-15T18:22:16.192Z,52.42
2023-04-15T18:24:44.576Z,52.46
2023-04-15T18:27:13.220Z,51.85
2023-04-15T18:29:42.751Z,51.73
2023-04-15T18:32:11.569Z,51.97
2023-04-15T18:34:39.637Z,52.99
2023-04-15T18:37:08.424Z,54.03
2023-04-15T18:39:37.370Z,54.91
2023-04-15T18:42:05.338Z,54.55
2023-04-15T18:44:32.396Z,54.24
2023-04-15T18:47:01.649Z,54.22
2023-04-15T18:49:33.566Z,54.97
2023-04-15T18:52:02.173Z,54.99
2023-04-15T18:54:30.973Z,56.80
2023-04-15T18:56:59.120Z,57.93
2023-04-15T18:59:30.111Z,60.12
2023-04-15T19:01:59.664Z,64.44
2023-04-15T19:04:29.343Z,66.64
2023-04-15T19:06:59.163Z,67.95
2023-04-15T19:09:26.401Z,68.01
2023-04-15T19:11:54.267Z,69.42
2023-04-15T19:14:22.059Z,70.97
2023-04-15T19:16:48.994Z,72.63
2023-04-15T19:19:16.851Z,73.06
2023-04-15T19:21:46.850Z,72.91
2023-04-15T19:24:14.830Z,73.42
2023-04-15T19:26:41.608Z,73.54
2023-04-15T19:29:09.659Z,73.39
2023-04-15T19:31:37.520Z,73.33
2023-04-15T19:34:04.413Z,71.90
2023-04-15T19:36:35.984Z,71.70
2023-04-15T19:39:03.168Z,72.57
2023-04-15T19:41:30.335Z,71.26
2023-04-15T19:43:57.956Z,70.63
2023-04-15T19:46:24.875Z,69.92
2023-04-15T19:48:55.386Z,70.47
2023-04-15T19:51:22.276Z,69.95
2023-04-15T19:53:51.069Z,69.69
2023-04-15T19:56:17.873Z,69.54
2023-04-15T19:58:47.009Z,70.17
2023-04-15T20:01:14.003Z,70.57
2023-04-15T20:03:41.186Z,70.85
2023-04-15T20:06:08.969Z,71.43
2023-04-15T20:08:35.835Z,71.02
2023-04-15T20:11:03.731Z,71.17
2023-04-15T20:13:33.085Z,70.25
2023-04-15T20:16:00.790Z,68.94
2023-04-15T20:18:28.583Z,69.17
2023-04-15T20:20:56.247Z,69.74
2023-04-15T20:23:29.061Z,70.55
2023-04-15T20:25:56.829Z,71.63
2023-04-15T20:28:27.669Z,70.82
2023-04-15T20:30:55.476Z,69.62
2023-04-15T20:33:23.337Z,68.45
2023-04-15T20:35:52.189Z,67.05
2023-04-15T20:38:20.773Z,66.25
2023-04-15T20:40:48.586Z,66.15
2023-04-15T20:43:18.528Z,66.04
2023-04-15T20:45:45.831Z,64.90
2023-04-15T20:48:12.631Z,64.61
2023-04-15T20:50:40.020Z,64.20
2023-04-15T20:53:07.657Z,64.36
2023-04-15T20:55:35.374Z,64.71
2023-04-15T20:58:08.935Z,65.05
2023-04-15T21:00:36.666Z,65.10
2023-04-15T21:03:04.812Z,65.45
2023-04-15T21:05:32.848Z,65.39
2023-04-15T21:08:00.788Z,65.59
2023-04-15T21:10:34.577Z,64.90
2023-04-15T21:13:03.037Z,64.23
2023-04-15T21:15:30.740Z,63.59
2023-04-15T21:17:57.453Z,63.56
2023-04-15T21:20:24.255Z,63.45
2023-04-15T21:22:53.107Z,63.85
2023-04-15T21:25:20.866Z,64.20
2023-04-15T21:27:47.654Z,64.60
2023-04-15T21:30:15.458Z,64.51
2023-04-15T21:32:42.348Z,65.28
2023-04-15T21:35:10.487Z,65.63
2023-04-15T21:37:38.325Z,66.90
2023-04-15T21:40:06.672Z,66.76
2023-04-15T21:42:33.512Z,66.41
2023-04-15T21:45:00.548Z,66.19
2023-04-15T21:47:27.549Z,66.04
2023-04-15T21:49:55.363Z,65.98
2023-04-15T21:52:22.173Z,65.95
2023-04-15T21:54:49.804Z,65.51
2023-04-15T21:57:17.103Z,65.19
2023-04-15T21:59:44.296Z,65.20
2023-04-15T22:02:12.173Z,64.53
2023-04-15T22:04:39.884Z,64.39
2023-04-15T22:07:06.837Z,64.24
2023-04-15T22:09:33.826Z,64.36
2023-04-15T22:12:01.130Z,64.06
2023-04-15T22:14:28.617Z,63.33
2023-04-15T22:16:55.968Z,62.74
2023-04-15T22:19:22.642Z,62.48
2023-04-15T22:21:51.171Z,63.29
2023-04-15T22:24:34.573Z,62.55
2023-04-15T22:27:04.956Z,63.40
2023-04-15T22:29:31.708Z,63.68
2023-04-15T22:31:59.433Z,64.01
2023-04-15T22:34:27.127Z,63.51
2023-04-15T22:36:54.958Z,63.30
2023-04-15T22:39:21.657Z,62.74
2023-04-15T22:41:50.190Z,62.47
2023-04-15T22:44:17.061Z,61.59
2023-04-15T22:46:44.736Z,61.78
2023-04-15T22:49:11.437Z,61.14
2023-04-15T22:51:38.506Z,60.92
2023-04-15T22:54:05.284Z,60.85
2023-04-15T22:56:32.147Z,60.99
2023-04-15T22:58:58.945Z,61.11
2023-04-15T23:01:25.848Z,60.05
2023-04-15T23:03:56.807Z,60.45
2023-04-15T23:06:31.498Z,59.96
2023-04-15T23:08:59.223Z,60.23
2023-04-15T23:11:26.040Z,59.56
2023-04-15T23:13:53.917Z,59.33
2023-04-15T23:16:22.009Z,60.00
2023-04-15T23:18:48.944Z,59.38
2023-04-15T23:21:17.313Z,58.84
2023-04-15T23:23:44.624Z,59.02
2023-04-15T23:26:11.654Z,60.20
2023-04-15T23:28:39.272Z,60.67
2023-04-15T23:31:06.927Z,60.36
2023-04-15T23:33:34.588Z,61.23
2023-04-15T23:36:02.381Z,60.97
2023-04-15T23:38:30.090Z,61.38
2023-04-15T23:40:57.688Z,61.52
2023-04-15T23:43:25.410Z,62.38
2023-04-15T23:45:52.916Z,62.37
2023-04-15T23:48:23.877Z,62.78
2023-04-15T23:50:51.512Z,63.24
2023-04-15T23:53:19.207Z,63.95
2023-04-15T23:55:46.057Z,63.00
2023-04-15T23:58:12.778Z,62.65
